sensor_id;sensor_type;location;lat;lon;timestamp;pressure;altitude;pressure_sealevel;temperature;humidity
47913;BME280;33676;51.006;17.180;2022-09-28T00:01:25;98545.95;;;8.69;100.00
47913;BME280;33676;51.006;17.180;2022-09-28T00:03:55;98542.05;;;8.71;100.00
47913;BME280;33676;51.006;17.180;2022-09-28T00:06:29;98539.88;;;8.74;100.00
47913;BME280;33676;51.006;17.180;2022-09-28T00:08:57;98541.02;;;8.76;100.00
47913;BME280;33676;51.006;17.180;2022-09-28T00:11:27;98537.48;;;8.78;100.00
47913;BME280;33676;51.006;17.180;2022-09-28T00:13:59;98529.38;;;8.81;100.00
47913;BME280;33676;51.006;17.180;2022-09-28T00:16:37;98529.90;;;8.84;100.00
47913;BME280;33676;51.006;17.180;2022-09-28T00:19:06;98525.13;;;8.88;100.00
47913;BME280;33676;51.006;17.180;2022-09-28T00:21:38;98523.22;;;8.92;100.00
47913;BME280;33676;51.006;17.180;2022-09-28T00:24:12;98520.88;;;8.96;100.00
47913;BME280;33676;51.006;17.180;2022-09-28T00:26:55;98519.14;;;9.00;100.00
47913;BME280;33676;51.006;17.180;2022-09-28T00:29:33;98517.23;;;9.03;100.00
47913;BME280;33676;51.006;17.180;2022-09-28T00:32:10;98514.67;;;9.06;100.00
47913;BME280;33676;51.006;17.180;2022-09-28T00:34:42;98514.02;;;9.09;100.00
47913;BME280;33676;51.006;17.180;2022-09-28T00:37:14;98509.75;;;9.11;100.00
47913;BME280;33676;51.006;17.180;2022-09-28T00:39:42;98507.56;;;9.12;100.00
47913;BME280;33676;51.006;17.180;2022-09-28T00:42:17;98508.00;;;9.13;100.00
47913;BME280;33676;51.006;17.180;2022-09-28T00:44:50;98504.24;;;9.14;100.00
47913;BME280;33676;51.006;17.180;2022-09-28T00:47:46;98502.91;;;9.15;100.00
47913;BME280;33676;51.006;17.180;2022-09-28T00:55:33;98503.00;;;9.14;100.00
47913;BME280;33676;51.006;17.180;2022-09-28T00:58:09;98500.30;;;9.12;100.00
47913;BME280;33676;51.006;17.180;2022-09-28T01:00:39;98499.83;;;9.08;100.00
47913;BME280;33676;51.006;17.180;2022-09-28T01:03:09;98499.22;;;9.02;100.00
47913;BME280;33676;51.006;17.180;2022-09-28T01:05:38;98497.42;;;8.94;100.00
47913;BME280;33676;51.006;17.180;2022-09-28T01:08:07;98494.77;;;8.86;100.00
47913;BME280;33676;51.006;17.180;2022-09-28T01:10:38;98493.85;;;8.79;100.00
47913;BME280;33676;51.006;17.180;2022-09-28T01:13:09;98496.12;;;8.74;100.00
47913;BME280;33676;51.006;17.180;2022-09-28T01:22:03;98494.97;;;8.53;100.00
47913;BME280;33676;51.006;17.180;2022-09-28T01:24:44;98491.95;;;8.45;100.00
47913;BME280;33676;51.006;17.180;2022-09-28T01:27:33;98494.63;;;8.41;100.00
47913;BME280;33676;51.006;17.180;2022-09-28T01:30:10;98494.70;;;8.39;100.00
47913;BME280;33676;51.006;17.180;2022-09-28T01:32:57;98493.38;;;8.38;100.00
47913;BME280;33676;51.006;17.180;2022-09-28T01:35:40;98490.42;;;8.38;100.00
47913;BME280;33676;51.006;17.180;2022-09-28T01:38:24;98492.23;;;8.37;100.00
47913;BME280;33676;51.006;17.180;2022-09-28T01:40:58;98490.61;;;8.38;100.00
47913;BME280;33676;51.006;17.180;2022-09-28T01:43:29;98493.52;;;8.38;100.00
47913;BME280;33676;51.006;17.180;2022-09-28T01:46:21;98494.27;;;8.38;100.00
47913;BME280;33676;51.006;17.180;2022-09-28T01:48:57;98492.40;;;8.37;100.00
47913;BME280;33676;51.006;17.180;2022-09-28T01:51:45;98490.80;;;8.38;100.00
47913;BME280;33676;51.006;17.180;2022-09-28T01:54:30;98489.98;;;8.37;100.00
47913;BME280;33676;51.006;17.180;2022-09-28T01:57:23;98488.20;;;8.38;100.00
47913;BME280;33676;51.006;17.180;2022-09-28T02:00:03;98488.30;;;8.36;100.00
47913;BME280;33676;51.006;17.180;2022-09-28T02:02:38;98489.80;;;8.35;100.00
47913;BME280;33676;51.006;17.180;2022-09-28T02:05:50;98487.64;;;8.32;100.00
47913;BME280;33676;51.006;17.180;2022-09-28T02:08:52;98491.52;;;8.28;100.00
47913;BME280;33676;51.006;17.180;2022-09-28T02:11:22;98494.50;;;8.23;100.00
47913;BME280;33676;51.006;17.180;2022-09-28T02:14:07;98495.00;;;8.18;100.00
47913;BME280;33676;51.006;17.180;2022-09-28T02:16:42;98499.51;;;8.14;100.00
47913;BME280;33676;51.006;17.180;2022-09-28T02:19:20;98501.48;;;8.12;100.00
47913;BME280;33676;51.006;17.180;2022-09-28T02:22:00;98499.05;;;8.12;100.00
47913;BME280;33676;51.006;17.180;2022-09-28T02:25:20;98498.70;;;8.12;100.00
47913;BME280;33676;51.006;17.180;2022-09-28T02:27:59;98500.65;;;8.11;100.00
47913;BME280;33676;51.006;17.180;2022-09-28T02:30:30;98496.47;;;8.11;100.00
47913;BME280;33676;51.006;17.180;2022-09-28T02:33:07;98496.81;;;8.13;100.00
47913;BME280;33676;51.006;17.180;2022-09-28T02:35:38;98496.07;;;8.16;100.00
47913;BME280;33676;51.006;17.180;2022-09-28T02:38:12;98494.33;;;8.17;100.00
47913;BME280;33676;51.006;17.180;2022-09-28T02:40:52;98493.10;;;8.19;100.00
47913;BME280;33676;51.006;17.180;2022-09-28T02:43:31;98493.39;;;8.22;100.00
47913;BME280;33676;51.006;17.180;2022-09-28T02:49:55;98491.14;;;8.29;100.00
47913;BME280;33676;51.006;17.180;2022-09-28T02:52:53;98491.17;;;8.32;100.00
47913;BME280;33676;51.006;17.180;2022-09-28T02:56:03;98494.48;;;8.34;100.00
47913;BME280;33676;51.006;17.180;2022-09-28T02:58:51;98491.50;;;8.36;100.00
47913;BME280;33676;51.006;17.180;2022-09-28T03:01:49;98494.65;;;8.37;100.00
47913;BME280;33676;51.006;17.180;2022-09-28T03:07:31;98493.17;;;8.40;100.00
47913;BME280;33676;51.006;17.180;2022-09-28T03:10:37;98495.99;;;8.41;100.00
47913;BME280;33676;51.006;17.180;2022-09-28T03:13:08;98496.71;;;8.41;100.00
47913;BME280;33676;51.006;17.180;2022-09-28T03:15:38;98501.73;;;8.40;100.00
47913;BME280;33676;51.006;17.180;2022-09-28T03:18:13;98496.33;;;8.38;100.00
47913;BME280;33676;51.006;17.180;2022-09-28T03:20:41;98497.46;;;8.37;100.00
47913;BME280;33676;51.006;17.180;2022-09-28T03:23:10;98501.75;;;8.36;100.00
47913;BME280;33676;51.006;17.180;2022-09-28T03:25:53;98500.27;;;8.35;100.00
47913;BME280;33676;51.006;17.180;2022-09-28T03:28:23;98499.65;;;8.35;100.00
47913;BME280;33676;51.006;17.180;2022-09-28T03:30:51;98501.14;;;8.33;100.00
47913;BME280;33676;51.006;17.180;2022-09-28T03:33:20;98499.41;;;8.33;100.00
47913;BME280;33676;51.006;17.180;2022-09-28T03:35:49;98496.94;;;8.34;100.00
47913;BME280;33676;51.006;17.180;2022-09-28T03:38:18;98493.60;;;8.34;100.00
47913;BME280;33676;51.006;17.180;2022-09-28T03:40:59;98495.50;;;8.34;100.00
47913;BME280;33676;51.006;17.180;2022-09-28T03:43:30;98494.76;;;8.34;100.00
47913;BME280;33676;51.006;17.180;2022-09-28T03:46:00;98491.95;;;8.35;100.00
47913;BME280;33676;51.006;17.180;2022-09-28T03:48:33;98490.88;;;8.35;100.00
47913;BME280;33676;51.006;17.180;2022-09-28T03:51:05;98490.98;;;8.36;100.00
47913;BME280;33676;51.006;17.180;2022-09-28T03:53:35;98489.38;;;8.36;100.00
47913;BME280;33676;51.006;17.180;2022-09-28T03:56:08;98484.43;;;8.37;100.00
47913;BME280;33676;51.006;17.180;2022-09-28T03:58:38;98488.38;;;8.37;100.00
47913;BME280;33676;51.006;17.180;2022-09-28T04:01:10;98489.40;;;8.38;100.00
47913;BME280;33676;51.006;17.180;2022-09-28T04:03:45;98483.59;;;8.38;100.00
47913;BME280;33676;51.006;17.180;2022-09-28T04:06:14;98484.44;;;8.39;100.00
47913;BME280;33676;51.006;17.180;2022-09-28T04:08:42;98482.48;;;8.39;100.00
47913;BME280;33676;51.006;17.180;2022-09-28T04:11:10;98484.27;;;8.40;100.00
47913;BME280;33676;51.006;17.180;2022-09-28T04:13:39;98485.23;;;8.41;100.00
47913;BME280;33676;51.006;17.180;2022-09-28T04:16:09;98485.10;;;8.42;100.00
47913;BME280;33676;51.006;17.180;2022-09-28T04:18:39;98483.97;;;8.43;100.00
47913;BME280;33676;51.006;17.180;2022-09-28T04:21:11;98486.27;;;8.45;100.00
47913;BME280;33676;51.006;17.180;2022-09-28T04:23:40;98484.30;;;8.45;100.00
47913;BME280;33676;51.006;17.180;2022-09-28T04:26:21;98480.44;;;8.46;100.00
47913;BME280;33676;51.006;17.180;2022-09-28T04:28:50;98476.85;;;8.47;100.00
47913;BME280;33676;51.006;17.180;2022-09-28T04:31:49;98475.15;;;8.46;100.00
47913;BME280;33676;51.006;17.180;2022-09-28T04:34:21;98471.73;;;8.45;100.00
47913;BME280;33676;51.006;17.180;2022-09-28T04:36:49;98469.29;;;8.44;100.00
47913;BME280;33676;51.006;17.180;2022-09-28T04:39:18;98469.13;;;8.44;100.00
47913;BME280;33676;51.006;17.180;2022-09-28T04:41:47;98469.67;;;8.43;100.00
47913;BME280;33676;51.006;17.180;2022-09-28T04:44:16;98471.80;;;8.43;100.00
47913;BME280;33676;51.006;17.180;2022-09-28T04:46:44;98474.97;;;8.45;100.00
47913;BME280;33676;51.006;17.180;2022-09-28T04:49:13;98476.89;;;8.44;100.00
47913;BME280;33676;51.006;17.180;2022-09-28T04:51:41;98474.36;;;8.45;100.00
47913;BME280;33676;51.006;17.180;2022-09-28T04:54:10;98477.02;;;8.47;100.00
47913;BME280;33676;51.006;17.180;2022-09-28T04:56:38;98477.94;;;8.48;100.00
47913;BME280;33676;51.006;17.180;2022-09-28T04:59:06;98476.80;;;8.49;100.00
47913;BME280;33676;51.006;17.180;2022-09-28T05:01:35;98475.77;;;8.50;100.00
47913;BME280;33676;51.006;17.180;2022-09-28T05:04:03;98478.53;;;8.53;100.00
47913;BME280;33676;51.006;17.180;2022-09-28T05:06:32;98478.45;;;8.53;100.00
47913;BME280;33676;51.006;17.180;2022-09-28T05:09:00;98475.09;;;8.54;100.00
47913;BME280;33676;51.006;17.180;2022-09-28T05:11:28;98473.39;;;8.53;100.00
47913;BME280;33676;51.006;17.180;2022-09-28T05:13:57;98472.50;;;8.54;100.00
47913;BME280;33676;51.006;17.180;2022-09-28T05:16:25;98480.21;;;8.53;100.00
47913;BME280;33676;51.006;17.180;2022-09-28T05:18:55;98479.74;;;8.52;100.00
47913;BME280;33676;51.006;17.180;2022-09-28T05:21:24;98479.20;;;8.53;100.00
47913;BME280;33676;51.006;17.180;2022-09-28T05:23:53;98479.85;;;8.53;100.00
47913;BME280;33676;51.006;17.180;2022-09-28T05:26:24;98479.95;;;8.54;100.00
47913;BME280;33676;51.006;17.180;2022-09-28T05:28:52;98476.73;;;8.55;100.00
47913;BME280;33676;51.006;17.180;2022-09-28T05:31:20;98478.89;;;8.56;100.00
47913;BME280;33676;51.006;17.180;2022-09-28T05:33:49;98478.67;;;8.56;100.00
47913;BME280;33676;51.006;17.180;2022-09-28T05:36:18;98475.70;;;8.56;100.00
47913;BME280;33676;51.006;17.180;2022-09-28T05:38:47;98469.92;;;8.57;100.00
47913;BME280;33676;51.006;17.180;2022-09-28T05:41:15;98472.20;;;8.57;100.00
47913;BME280;33676;51.006;17.180;2022-09-28T05:43:43;98469.30;;;8.56;100.00
47913;BME280;33676;51.006;17.180;2022-09-28T05:46:12;98470.18;;;8.56;100.00
47913;BME280;33676;51.006;17.180;2022-09-28T05:48:41;98469.14;;;8.56;100.00
47913;BME280;33676;51.006;17.180;2022-09-28T05:51:10;98466.27;;;8.57;100.00
47913;BME280;33676;51.006;17.180;2022-09-28T05:53:39;98465.99;;;8.56;100.00
47913;BME280;33676;51.006;17.180;2022-09-28T05:56:07;98460.38;;;8.56;100.00
47913;BME280;33676;51.006;17.180;2022-09-28T05:58:35;98458.30;;;8.58;100.00
47913;BME280;33676;51.006;17.180;2022-09-28T06:01:04;98462.77;;;8.59;100.00
47913;BME280;33676;51.006;17.180;2022-09-28T06:03:33;98458.20;;;8.61;100.00
47913;BME280;33676;51.006;17.180;2022-09-28T06:06:02;98462.98;;;8.64;100.00
47913;BME280;33676;51.006;17.180;2022-09-28T06:08:31;98460.30;;;8.66;100.00
47913;BME280;33676;51.006;17.180;2022-09-28T06:11:00;98459.83;;;8.69;100.00
47913;BME280;33676;51.006;17.180;2022-09-28T06:13:29;98455.71;;;8.72;100.00
47913;BME280;33676;51.006;17.180;2022-09-28T06:15:59;98457.92;;;8.76;100.00
47913;BME280;33676;51.006;17.180;2022-09-28T06:18:28;98458.52;;;8.80;100.00
47913;BME280;33676;51.006;17.180;2022-09-28T06:20:56;98461.30;;;8.85;100.00
47913;BME280;33676;51.006;17.180;2022-09-28T06:23:25;98463.80;;;8.92;100.00
47913;BME280;33676;51.006;17.180;2022-09-28T06:25:53;98462.01;;;9.00;100.00
47913;BME280;33676;51.006;17.180;2022-09-28T06:28:22;98462.06;;;9.06;100.00
47913;BME280;33676;51.006;17.180;2022-09-28T06:30:50;98458.09;;;9.14;100.00
47913;BME280;33676;51.006;17.180;2022-09-28T06:33:20;98458.86;;;9.23;100.00
47913;BME280;33676;51.006;17.180;2022-09-28T06:35:49;98452.15;;;9.33;100.00
47913;BME280;33676;51.006;17.180;2022-09-28T06:38:18;98446.99;;;9.42;100.00
47913;BME280;33676;51.006;17.180;2022-09-28T06:40:46;98447.89;;;9.50;100.00
47913;BME280;33676;51.006;17.180;2022-09-28T06:43:15;98440.81;;;9.56;100.00
47913;BME280;33676;51.006;17.180;2022-09-28T06:45:50;98438.78;;;9.63;100.00
47913;BME280;33676;51.006;17.180;2022-09-28T06:48:19;98433.05;;;9.69;100.00
47913;BME280;33676;51.006;17.180;2022-09-28T06:50:48;98432.58;;;9.75;100.00
47913;BME280;33676;51.006;17.180;2022-09-28T06:53:17;98428.77;;;9.80;100.00
47913;BME280;33676;51.006;17.180;2022-09-28T06:55:46;98425.52;;;9.84;100.00
47913;BME280;33676;51.006;17.180;2022-09-28T06:58:18;98428.71;;;9.87;100.00
47913;BME280;33676;51.006;17.180;2022-09-28T07:00:49;98427.84;;;9.88;100.00
47913;BME280;33676;51.006;17.180;2022-09-28T07:03:21;98426.15;;;9.91;100.00
47913;BME280;33676;51.006;17.180;2022-09-28T07:05:51;98426.03;;;9.96;100.00
47913;BME280;33676;51.006;17.180;2022-09-28T07:08:23;98423.16;;;10.00;100.00
47913;BME280;33676;51.006;17.180;2022-09-28T07:10:53;98423.52;;;10.05;100.00
47913;BME280;33676;51.006;17.180;2022-09-28T07:13:27;98429.50;;;10.10;100.00
47913;BME280;33676;51.006;17.180;2022-09-28T07:16:15;98436.31;;;10.16;100.00
47913;BME280;33676;51.006;17.180;2022-09-28T07:18:44;98438.39;;;10.23;100.00
47913;BME280;33676;51.006;17.180;2022-09-28T07:21:12;98438.34;;;10.32;100.00
47913;BME280;33676;51.006;17.180;2022-09-28T07:23:55;98444.52;;;10.42;100.00
47913;BME280;33676;51.006;17.180;2022-09-28T07:26:23;98447.30;;;10.54;100.00
47913;BME280;33676;51.006;17.180;2022-09-28T07:28:53;98443.79;;;10.62;100.00
47913;BME280;33676;51.006;17.180;2022-09-28T07:31:23;98450.45;;;10.70;100.00
47913;BME280;33676;51.006;17.180;2022-09-28T07:33:52;98448.05;;;10.76;100.00
47913;BME280;33676;51.006;17.180;2022-09-28T07:36:21;98446.99;;;10.81;100.00
47913;BME280;33676;51.006;17.180;2022-09-28T07:38:50;98448.14;;;10.87;100.00
47913;BME280;33676;51.006;17.180;2022-09-28T07:41:18;98441.04;;;10.90;100.00
47913;BME280;33676;51.006;17.180;2022-09-28T07:44:00;98435.88;;;10.96;100.00
47913;BME280;33676;51.006;17.180;2022-09-28T07:46:36;98434.88;;;11.04;100.00
47913;BME280;33676;51.006;17.180;2022-09-28T07:49:05;98434.76;;;11.13;100.00
47913;BME280;33676;51.006;17.180;2022-09-28T07:51:39;98430.89;;;11.22;100.00
47913;BME280;33676;51.006;17.180;2022-09-28T07:54:11;98426.45;;;11.33;100.00
47913;BME280;33676;51.006;17.180;2022-09-28T07:56:39;98430.10;;;11.42;100.00
47913;BME280;33676;51.006;17.180;2022-09-28T07:59:07;98430.89;;;11.49;100.00
47913;BME280;33676;51.006;17.180;2022-09-28T08:01:36;98431.92;;;11.54;100.00
47913;BME280;33676;51.006;17.180;2022-09-28T08:04:04;98432.02;;;11.63;100.00
47913;BME280;33676;51.006;17.180;2022-09-28T08:06:33;98431.19;;;11.72;100.00
47913;BME280;33676;51.006;17.180;2022-09-28T08:09:01;98430.32;;;11.78;100.00
47913;BME280;33676;51.006;17.180;2022-09-28T08:11:30;98429.58;;;11.84;100.00
47913;BME280;33676;51.006;17.180;2022-09-28T08:13:58;98430.05;;;11.89;100.00
47913;BME280;33676;51.006;17.180;2022-09-28T08:16:27;98427.00;;;11.96;100.00
47913;BME280;33676;51.006;17.180;2022-09-28T08:18:56;98427.58;;;12.04;100.00
47913;BME280;33676;51.006;17.180;2022-09-28T08:21:24;98427.06;;;12.15;100.00
47913;BME280;33676;51.006;17.180;2022-09-28T08:24:13;98424.56;;;12.33;100.00
47913;BME280;33676;51.006;17.180;2022-09-28T08:26:42;98423.07;;;12.49;100.00
47913;BME280;33676;51.006;17.180;2022-09-28T08:29:11;98417.59;;;12.60;100.00
47913;BME280;33676;51.006;17.180;2022-09-28T08:31:39;98413.41;;;12.67;100.00
47913;BME280;33676;51.006;17.180;2022-09-28T08:34:07;98416.78;;;12.72;100.00
47913;BME280;33676;51.006;17.180;2022-09-28T08:36:36;98421.46;;;12.72;100.00
47913;BME280;33676;51.006;17.180;2022-09-28T08:39:06;98419.78;;;12.71;100.00
47913;BME280;33676;51.006;17.180;2022-09-28T08:42:07;98420.77;;;12.76;100.00
47913;BME280;33676;51.006;17.180;2022-09-28T08:44:45;98417.41;;;12.87;100.00
47913;BME280;33676;51.006;17.180;2022-09-28T08:47:52;98406.30;;;13.00;100.00
47913;BME280;33676;51.006;17.180;2022-09-28T08:51:42;98409.89;;;13.29;100.00
47913;BME280;33676;51.006;17.180;2022-09-28T08:53:54;98402.83;;;13.57;100.00
47913;BME280;33676;51.006;17.180;2022-09-28T08:56:46;98398.61;;;13.70;99.30
47913;BME280;33676;51.006;17.180;2022-09-28T08:59:24;98396.06;;;13.89;98.01
47913;BME280;33676;51.006;17.180;2022-09-28T09:02:02;98396.55;;;13.96;97.32
47913;BME280;33676;51.006;17.180;2022-09-28T09:04:32;98399.29;;;13.91;96.52
47913;BME280;33676;51.006;17.180;2022-09-28T09:10:33;98393.75;;;13.79;96.03
47913;BME280;33676;51.006;17.180;2022-09-28T09:19:13;98388.51;;;14.38;96.45
47913;BME280;33676;51.006;17.180;2022-09-28T09:21:57;98385.14;;;14.74;96.37
47913;BME280;33676;51.006;17.180;2022-09-28T09:24:50;98382.31;;;15.06;95.32
47913;BME280;33676;51.006;17.180;2022-09-28T09:30:39;98385.77;;;14.83;90.90
47913;BME280;33676;51.006;17.180;2022-09-28T09:34:00;98387.96;;;14.88;91.57
47913;BME280;33676;51.006;17.180;2022-09-28T09:42:36;98377.34;;;15.47;91.87
47913;BME280;33676;51.006;17.180;2022-09-28T09:48:36;98365.89;;;16.33;90.78
47913;BME280;33676;51.006;17.180;2022-09-28T09:54:31;98369.02;;;17.13;88.32
47913;BME280;33676;51.006;17.180;2022-09-28T09:57:14;98364.21;;;17.25;87.41
47913;BME280;33676;51.006;17.180;2022-09-28T09:59:46;98362.55;;;17.36;87.51
47913;BME280;33676;51.006;17.180;2022-09-28T10:02:25;98358.55;;;17.59;87.44
47913;BME280;33676;51.006;17.180;2022-09-28T10:05:01;98366.60;;;18.02;88.34
47913;BME280;33676;51.006;17.180;2022-09-28T10:10:29;98375.73;;;18.53;83.39
47913;BME280;33676;51.006;17.180;2022-09-28T10:13:01;98377.08;;;18.43;81.77
47913;BME280;33676;51.006;17.180;2022-09-28T10:15:32;98382.55;;;18.31;81.73
47913;BME280;33676;51.006;17.180;2022-09-28T10:18:08;98381.02;;;18.14;81.29
47913;BME280;33676;51.006;17.180;2022-09-28T10:20:40;98386.16;;;18.01;81.34
47913;BME280;33676;51.006;17.180;2022-09-28T10:23:18;98396.63;;;17.78;80.57
47913;BME280;33676;51.006;17.180;2022-09-28T10:25:52;98397.10;;;17.53;80.60
47913;BME280;33676;51.006;17.180;2022-09-28T10:28:33;98401.77;;;17.30;80.44
47913;BME280;33676;51.006;17.180;2022-09-28T10:34:14;98402.35;;;16.48;79.26
47913;BME280;33676;51.006;17.180;2022-09-28T10:36:51;98404.09;;;16.04;78.82
47913;BME280;33676;51.006;17.180;2022-09-28T10:42:07;98413.96;;;15.18;80.37
47913;BME280;33676;51.006;17.180;2022-09-28T10:45:17;98419.61;;;14.75;80.84
47913;BME280;33676;51.006;17.180;2022-09-28T10:47:47;98424.88;;;14.21;81.85
47913;BME280;33676;51.006;17.180;2022-09-28T10:50:25;98422.07;;;13.91;82.62
47913;BME280;33676;51.006;17.180;2022-09-28T10:53:09;98431.00;;;13.62;83.30
47913;BME280;33676;51.006;17.180;2022-09-28T10:55:38;98435.73;;;13.32;83.99
47913;BME280;33676;51.006;17.180;2022-09-28T10:58:36;98435.98;;;13.07;83.82
47913;BME280;33676;51.006;17.180;2022-09-28T11:01:11;98418.06;;;12.87;84.57
47913;BME280;33676;51.006;17.180;2022-09-28T11:04:01;98412.80;;;12.77;85.72
47913;BME280;33676;51.006;17.180;2022-09-28T11:06:37;98402.19;;;12.69;86.46
47913;BME280;33676;51.006;17.180;2022-09-28T11:09:28;98394.04;;;12.62;86.84
47913;BME280;33676;51.006;17.180;2022-09-28T11:11:59;98387.05;;;12.60;87.96
47913;BME280;33676;51.006;17.180;2022-09-28T11:14:38;98375.45;;;12.66;88.48
47913;BME280;33676;51.006;17.180;2022-09-28T11:19:44;98359.61;;;12.92;90.13
47913;BME280;33676;51.006;17.180;2022-09-28T11:22:38;98356.08;;;13.01;90.39
47913;BME280;33676;51.006;17.180;2022-09-28T11:30:23;98363.88;;;13.09;90.87
47913;BME280;33676;51.006;17.180;2022-09-28T11:33:05;98365.60;;;13.14;91.25
47913;BME280;33676;51.006;17.180;2022-09-28T11:45:01;98350.53;;;13.22;91.96
47913;BME280;33676;51.006;17.180;2022-09-28T11:48:00;98349.18;;;13.22;92.20
47913;BME280;33676;51.006;17.180;2022-09-28T11:53:19;98349.71;;;13.19;92.29
47913;BME280;33676;51.006;17.180;2022-09-28T11:55:57;98354.77;;;13.18;92.39
47913;BME280;33676;51.006;17.180;2022-09-28T11:58:39;98363.45;;;13.17;92.61
47913;BME280;33676;51.006;17.180;2022-09-28T12:01:48;98367.46;;;13.17;92.85
47913;BME280;33676;51.006;17.180;2022-09-28T12:04:43;98365.10;;;13.15;92.82
47913;BME280;33676;51.006;17.180;2022-09-28T12:10:05;98366.58;;;12.98;92.35
47913;BME280;33676;51.006;17.180;2022-09-28T12:13:04;98369.55;;;12.91;93.02
47913;BME280;33676;51.006;17.180;2022-09-28T12:15:58;98366.83;;;12.89;93.68
47913;BME280;33676;51.006;17.180;2022-09-28T12:19:28;98364.31;;;12.86;94.06
47913;BME280;33676;51.006;17.180;2022-09-28T12:22:11;98361.11;;;12.81;93.81
47913;BME280;33676;51.006;17.180;2022-09-28T12:24:50;98356.02;;;12.79;94.28
47913;BME280;33676;51.006;17.180;2022-09-28T12:27:36;98355.69;;;12.78;94.44
47913;BME280;33676;51.006;17.180;2022-09-28T12:30:22;98353.49;;;12.77;94.72
47913;BME280;33676;51.006;17.180;2022-09-28T12:33:12;98350.98;;;12.82;94.98
47913;BME280;33676;51.006;17.180;2022-09-28T12:57:29;98317.42;;;13.21;96.29
47913;BME280;33676;51.006;17.180;2022-09-28T13:03:01;98306.34;;;13.31;96.29
47913;BME280;33676;51.006;17.180;2022-09-28T13:05:59;98295.73;;;13.35;96.07
47913;BME280;33676;51.006;17.180;2022-09-28T13:09:13;98295.08;;;13.35;95.81
47913;BME280;33676;51.006;17.180;2022-09-28T13:16:07;98302.30;;;13.36;95.68
47913;BME280;33676;51.006;17.180;2022-09-28T13:18:32;98299.77;;;13.33;95.60
47913;BME280;33676;51.006;17.180;2022-09-28T13:21:48;98304.00;;;13.29;95.84
47913;BME280;33676;51.006;17.180;2022-09-28T13:24:30;98311.87;;;13.23;96.25
47913;BME280;33676;51.006;17.180;2022-09-28T13:27:08;98317.67;;;13.18;96.07
47913;BME280;33676;51.006;17.180;2022-09-28T13:29:40;98323.14;;;13.14;96.30
47913;BME280;33676;51.006;17.180;2022-09-28T13:32:10;98327.49;;;13.10;96.55
47913;BME280;33676;51.006;17.180;2022-09-28T13:34:39;98315.98;;;13.05;96.74
47913;BME280;33676;51.006;17.180;2022-09-28T13:39:59;98324.48;;;12.98;97.38
47913;BME280;33676;51.006;17.180;2022-09-28T13:59:28;98313.14;;;12.90;98.07
47913;BME280;33676;51.006;17.180;2022-09-28T14:05:05;98307.69;;;12.73;97.84
47913;BME280;33676;51.006;17.180;2022-09-28T14:10:20;98304.02;;;12.70;98.61
47913;BME280;33676;51.006;17.180;2022-09-28T14:12:53;98300.78;;;12.66;98.79
47913;BME280;33676;51.006;17.180;2022-09-28T14:18:09;98299.81;;;12.58;99.01
47913;BME280;33676;51.006;17.180;2022-09-28T14:21:15;98298.33;;;12.51;98.94
47913;BME280;33676;51.006;17.180;2022-09-28T14:29:24;98302.06;;;12.29;99.13
47913;BME280;33676;51.006;17.180;2022-09-28T14:35:05;98296.42;;;12.20;99.56
47913;BME280;33676;51.006;17.180;2022-09-28T14:37:38;98293.11;;;12.15;99.64
47913;BME280;33676;51.006;17.180;2022-09-28T14:40:33;98299.84;;;12.12;99.85
47913;BME280;33676;51.006;17.180;2022-09-28T14:48:51;98296.70;;;12.03;100.00
47913;BME280;33676;51.006;17.180;2022-09-28T14:54:03;98300.09;;;11.96;100.00
47913;BME280;33676;51.006;17.180;2022-09-28T14:59:31;98292.73;;;11.93;100.00
47913;BME280;33676;51.006;17.180;2022-09-28T15:04:58;98285.20;;;11.82;100.00
47913;BME280;33676;51.006;17.180;2022-09-28T15:07:42;98289.31;;;11.80;100.00
47913;BME280;33676;51.006;17.180;2022-09-28T15:10:32;98279.98;;;11.82;100.00
47913;BME280;33676;51.006;17.180;2022-09-28T15:13:04;98283.51;;;11.89;100.00
47913;BME280;33676;51.006;17.180;2022-09-28T15:15:38;98287.59;;;12.01;100.00
47913;BME280;33676;51.006;17.180;2022-09-28T15:20:47;98277.22;;;12.30;100.00
47913;BME280;33676;51.006;17.180;2022-09-28T15:23:40;98281.78;;;12.46;100.00
47913;BME280;33676;51.006;17.180;2022-09-28T15:26:31;98288.47;;;12.62;100.00
47913;BME280;33676;51.006;17.180;2022-09-28T15:29:15;98296.16;;;12.71;100.00
47913;BME280;33676;51.006;17.180;2022-09-28T15:31:45;98299.46;;;12.79;100.00
47913;BME280;33676;51.006;17.180;2022-09-28T15:34:33;98295.64;;;13.06;100.00
47913;BME280;33676;51.006;17.180;2022-09-28T15:37:34;98294.99;;;14.31;100.00
47913;BME280;33676;51.006;17.180;2022-09-28T15:40:14;98294.08;;;16.24;100.00
47913;BME280;33676;51.006;17.180;2022-09-28T15:42:44;98294.58;;;17.88;100.00
47913;BME280;33676;51.006;17.180;2022-09-28T15:47:41;98302.14;;;20.56;100.00
47913;BME280;33676;51.006;17.180;2022-09-28T15:50:29;98301.67;;;21.67;99.78
47913;BME280;33676;51.006;17.180;2022-09-28T15:53:02;98310.38;;;22.49;96.13
47913;BME280;33676;51.006;17.180;2022-09-28T15:55:36;98303.30;;;23.03;91.98
47913;BME280;33676;51.006;17.180;2022-09-28T15:58:21;98304.27;;;23.08;87.25
47913;BME280;33676;51.006;17.180;2022-09-28T16:01:22;98307.92;;;23.01;86.05
47913;BME280;33676;51.006;17.180;2022-09-28T16:03:53;98313.98;;;22.76;85.47
47913;BME280;33676;51.006;17.180;2022-09-28T16:06:22;98324.71;;;22.61;84.46
47913;BME280;33676;51.006;17.180;2022-09-28T16:08:50;98324.88;;;22.54;83.93
47913;BME280;33676;51.006;17.180;2022-09-28T16:11:25;98325.16;;;22.38;81.59
47913;BME280;33676;51.006;17.180;2022-09-28T16:14:18;98325.20;;;21.14;79.04
47913;BME280;33676;51.006;17.180;2022-09-28T16:16:51;98326.16;;;19.73;78.03